createdAt,value
2022-10-12T00:01:51.441Z,7.53
2022-10-12T00:04:21.307Z,7.53
2022-10-12T00:06:49.517Z,7.44
2022-10-12T00:09:17.733Z,7.34
2022-10-12T00:11:45.721Z,7.21
2022-10-12T00:14:13.825Z,7.23
2022-10-12T00:16:43.528Z,7.19
2022-10-12T00:19:14.095Z,7.09
2022-10-12T00:21:42.259Z,7.09
2022-10-12T00:24:11.184Z,7.16
2022-10-12T00:26:39.384Z,7.12
2022-10-12T00:29:07.555Z,7.12
2022-10-12T00:31:35.697Z,7.07
2022-10-12T00:34:05.527Z,7.07
2022-10-12T00:36:35.896Z,7.01
2022-10-12T00:39:08.026Z,7.03
2022-10-12T00:41:39.326Z,7.05
2022-10-12T00:44:38.601Z,6.99
2022-10-12T00:47:14.402Z,6.97
2022-10-12T00:49:48.365Z,6.96
2022-10-12T00:52:18.914Z,6.99
2022-10-12T00:54:51.179Z,7.01
2022-10-12T00:57:20.491Z,6.88
2022-10-12T00:59:51.935Z,6.89
2022-10-12T01:02:21.150Z,6.83
2022-10-12T01:04:50.908Z,6.83
2022-10-12T01:07:19.077Z,6.82
2022-10-12T01:09:47.610Z,6.77
2022-10-12T01:12:17.297Z,6.75
2022-10-12T01:14:45.802Z,6.73
2022-10-12T01:17:28.582Z,6.71
2022-10-12T01:20:22.930Z,6.58
2022-10-12T01:23:04.447Z,6.64
2022-10-12T01:25:50.993Z,6.62
2022-10-12T01:28:34.292Z,6.50
2022-10-12T01:31:10.876Z,6.63
2022-10-12T01:33:45.139Z,6.54
2022-10-12T01:36:20.737Z,6.59
2022-10-12T01:38:54.899Z,6.61
2022-10-12T01:41:28.225Z,6.59
2022-10-12T01:43:56.315Z,6.60
2022-10-12T01:46:46.257Z,6.63
2022-10-12T01:49:17.232Z,6.59
2022-10-12T01:51:59.445Z,6.55
2022-10-12T01:54:38.927Z,6.64
2022-10-12T01:57:15.505Z,6.73
2022-10-12T01:59:50.970Z,6.60
2022-10-12T02:02:28.071Z,6.66
2022-10-12T02:05:03.444Z,6.74
2022-10-12T02:07:40.750Z,6.74
2022-10-12T02:10:15.853Z,6.70
2022-10-12T02:12:45.696Z,6.65
2022-10-12T02:15:15.206Z,6.75
2022-10-12T02:17:48.751Z,6.74
2022-10-12T02:20:19.767Z,6.78
2022-10-12T02:22:51.676Z,6.69
2022-10-12T02:25:22.621Z,6.73
2022-10-12T02:27:56.645Z,6.62
2022-10-12T02:30:25.362Z,6.59
2022-10-12T02:33:02.127Z,6.58
2022-10-12T02:35:36.232Z,6.47
2022-10-12T02:38:10.928Z,6.42
2022-10-12T02:40:44.636Z,6.48
2022-10-12T02:43:17.814Z,6.46
2022-10-12T02:45:49.455Z,6.40
2022-10-12T02:48:23.308Z,6.49
2022-10-12T02:50:54.285Z,6.48
2022-10-12T02:53:24.289Z,6.52
2022-10-12T02:55:54.635Z,6.47
2022-10-12T02:58:22.852Z,6.48
2022-10-12T03:00:51.062Z,6.53
2022-10-12T03:03:20.709Z,6.51
2022-10-12T03:05:48.821Z,6.42
2022-10-12T03:08:17.033Z,6.46
2022-10-12T03:10:45.251Z,6.43
2022-10-12T03:13:13.388Z,6.47
2022-10-12T03:15:41.639Z,6.36
2022-10-12T03:18:09.799Z,6.47
2022-10-12T03:20:39.638Z,6.37
2022-10-12T03:23:07.728Z,6.38
2022-10-12T03:25:35.893Z,6.44
2022-10-12T03:28:04.013Z,6.40
2022-10-12T03:30:32.195Z,6.47
2022-10-12T03:33:00.313Z,6.47
2022-10-12T03:35:29.181Z,6.38
2022-10-12T03:37:58.765Z,6.46
2022-10-12T03:40:26.920Z,6.44
2022-10-12T03:42:55.140Z,6.35
2022-10-12T03:45:23.263Z,6.47
2022-10-12T03:47:51.414Z,6.38
2022-10-12T03:50:19.528Z,6.45
2022-10-12T03:52:47.766Z,6.37
2022-10-12T03:55:17.544Z,6.41
2022-10-12T03:57:45.976Z,6.42
2022-10-12T04:00:15.292Z,6.48
2022-10-12T04:02:43.279Z,6.46
2022-10-12T04:05:11.495Z,6.42
2022-10-12T04:07:39.799Z,6.53
2022-10-12T04:10:09.207Z,6.56
2022-10-12T04:12:38.970Z,6.58
2022-10-12T04:15:08.414Z,6.63
2022-10-12T04:17:36.774Z,6.59
2022-10-12T04:20:06.567Z,6.53
2022-10-12T04:22:35.126Z,6.52
2022-10-12T04:25:03.278Z,6.62
2022-10-12T04:27:31.546Z,6.43
2022-10-12T04:30:01.242Z,6.49
2022-10-12T04:32:29.423Z,6.53
2022-10-12T04:34:57.624Z,6.57
2022-10-12T04:37:28.085Z,6.55
2022-10-12T04:39:56.373Z,6.54
2022-10-12T04:42:26.630Z,6.66
2022-10-12T04:44:56.878Z,6.61
2022-10-12T04:47:28.816Z,6.64
2022-10-12T04:49:57.005Z,6.64
2022-10-12T04:52:25.147Z,6.61
2022-10-12T04:54:53.315Z,6.66
2022-10-12T04:57:21.612Z,6.67
2022-10-12T04:59:49.729Z,6.64
2022-10-12T05:02:19.797Z,6.66
2022-10-12T05:04:49.428Z,6.67
2022-10-12T05:07:17.619Z,6.70
2022-10-12T05:09:45.792Z,6.61
2022-10-12T05:12:13.884Z,6.58
2022-10-12T05:14:44.283Z,6.64
2022-10-12T05:17:12.767Z,6.68
2022-10-12T05:19:41.046Z,6.64
2022-10-12T05:22:10.724Z,6.65
2022-10-12T05:24:38.775Z,6.66
2022-10-12T05:27:06.946Z,6.50
2022-10-12T05:29:35.050Z,6.54
2022-10-12T05:32:08.450Z,6.54
2022-10-12T05:34:36.873Z,6.46
2022-10-12T05:37:05.252Z,6.47
2022-10-12T05:39:34.858Z,6.38
2022-10-12T05:42:07.947Z,6.36
2022-10-12T05:44:36.456Z,6.34
2022-10-12T05:47:05.076Z,6.39
2022-10-12T05:49:33.176Z,6.27
2022-10-12T05:52:01.530Z,6.31
2022-10-12T05:54:29.847Z,6.29
2022-10-12T05:57:00.698Z,6.30
2022-10-12T05:59:28.859Z,6.33
2022-10-12T06:01:57.277Z,6.21
2022-10-12T06:04:25.446Z,6.16
2022-10-12T06:06:53.705Z,6.15
2022-10-12T06:09:22.038Z,6.22
2022-10-12T06:11:50.620Z,6.15
2022-10-12T06:14:20.236Z,6.18
2022-10-12T06:16:51.095Z,6.14
2022-10-12T06:19:25.116Z,6.14
2022-10-12T06:21:53.346Z,6.16
2022-10-12T06:24:21.384Z,6.21
2022-10-12T06:26:49.873Z,6.24
2022-10-12T06:29:19.682Z,6.26
2022-10-12T06:31:51.839Z,6.21
2022-10-12T06:34:20.404Z,6.23
2022-10-12T06:36:48.671Z,6.32
2022-10-12T06:39:18.089Z,6.32
2022-10-12T06:41:46.667Z,6.22
2022-10-12T06:44:14.991Z,6.34
2022-10-12T06:46:44.726Z,6.31
2022-10-12T06:49:13.158Z,6.38
2022-10-12T06:51:41.452Z,6.41
2022-10-12T06:54:09.881Z,6.64
2022-10-12T06:56:40.769Z,7.03
2022-10-12T06:59:09.441Z,7.12
2022-10-12T07:01:37.758Z,7.30
2022-10-12T07:04:07.382Z,7.48
2022-10-12T07:06:35.545Z,7.84
2022-10-12T07:09:03.810Z,7.94
2022-10-12T07:11:31.935Z,8.05
2022-10-12T07:14:00.028Z,8.15
2022-10-12T07:16:28.168Z,8.13
2022-10-12T07:18:56.323Z,8.15
2022-10-12T07:21:26.112Z,8.10
2022-10-12T07:23:54.292Z,8.14
2022-10-12T07:26:22.512Z,8.10
2022-10-12T07:28:51.439Z,8.15
2022-10-12T07:31:19.755Z,8.15
2022-10-12T07:33:48.058Z,8.23
2022-10-12T07:36:21.252Z,8.30
2022-10-12T07:38:51.755Z,8.29
2022-10-12T07:41:20.221Z,8.37
2022-10-12T07:43:48.295Z,8.44
2022-10-12T07:46:16.557Z,8.51
2022-10-12T07:48:50.114Z,8.59
2022-10-12T07:51:18.948Z,8.68
2022-10-12T07:53:47.594Z,8.78
2022-10-12T07:56:17.707Z,8.86
2022-10-12T07:58:50.412Z,8.91
2022-10-12T08:01:20.347Z,8.98
2022-10-12T08:03:48.812Z,9.02
2022-10-12T08:06:21.530Z,9.08
2022-10-12T08:08:50.102Z,9.05
2022-10-12T08:11:20.602Z,9.07
2022-10-12T08:13:49.795Z,9.16
2022-10-12T08:16:20.734Z,9.15
2022-10-12T08:18:49.337Z,9.21
2022-10-12T08:21:18.220Z,9.30
2022-10-12T08:23:47.103Z,9.41
2022-10-12T08:26:16.877Z,9.45
2022-10-12T08:28:46.406Z,9.53
2022-10-12T08:31:17.699Z,9.61
2022-10-12T08:33:46.653Z,9.66
2022-10-12T08:36:15.150Z,9.70
2022-10-12T08:38:44.452Z,9.77
2022-10-12T08:41:25.162Z,9.80
2022-10-12T08:44:08.792Z,9.84
2022-10-12T08:46:37.071Z,9.95
2022-10-12T08:49:14.233Z,9.97
2022-10-12T08:51:48.678Z,10.08
2022-10-12T08:54:20.743Z,10.16
2022-10-12T08:56:49.129Z,10.20
2022-10-12T08:59:20.346Z,10.35
2022-10-12T09:02:00.546Z,10.43
2022-10-12T09:04:41.654Z,10.46
2022-10-12T09:07:13.903Z,10.58
2022-10-12T09:09:53.680Z,10.71
2022-10-12T09:12:33.867Z,10.78
2022-10-12T09:15:11.645Z,10.78
2022-10-12T09:17:42.525Z,10.86
2022-10-12T09:20:19.078Z,10.87
2022-10-12T09:22:50.969Z,10.93
2022-10-12T09:25:23.961Z,10.96
2022-10-12T09:27:53.305Z,10.99
2022-10-12T09:30:23.155Z,11.02
2022-10-12T09:33:15.896Z,11.08
2022-10-12T09:35:46.501Z,11.10
2022-10-12T09:38:15.478Z,11.23
2022-10-12T09:40:54.259Z,11.27
2022-10-12T09:43:32.887Z,11.37
2022-10-12T09:49:58.421Z,11.69
2022-10-12T09:53:06.837Z,11.70
2022-10-12T09:56:10.768Z,11.99
2022-10-12T09:58:55.712Z,11.84
2022-10-12T10:02:41.780Z,11.85
2022-10-12T10:05:44.673Z,12.04
2022-10-12T10:08:20.593Z,12.17
2022-10-12T10:10:53.104Z,12.27
2022-10-12T10:13:22.258Z,12.27
2022-10-12T10:15:52.481Z,12.24
2022-10-12T10:18:25.798Z,12.22
2022-10-12T10:21:07.802Z,12.35
2022-10-12T10:23:43.648Z,12.27
2022-10-12T10:26:15.292Z,12.29
2022-10-12T10:28:44.982Z,12.25
2022-10-12T10:31:23.006Z,12.27
2022-10-12T10:34:14.908Z,12.27
2022-10-12T10:36:48.590Z,12.36
2022-10-12T10:39:27.111Z,12.32
2022-10-12T10:41:56.456Z,12.44
2022-10-12T10:44:31.127Z,12.57
2022-10-12T10:47:05.537Z,12.64
2022-10-12T10:49:43.232Z,12.48
2022-10-12T10:52:24.469Z,12.43
2022-10-12T10:55:15.985Z,12.58
2022-10-12T10:57:48.278Z,12.58
2022-10-12T11:00:37.979Z,12.57
2022-10-12T11:03:14.444Z,13.05
2022-10-12T11:05:47.860Z,13.05
2022-10-12T11:08:23.344Z,12.99
2022-10-12T11:10:58.739Z,13.39
2022-10-12T11:13:32.436Z,13.18
2022-10-12T11:16:06.249Z,13.33
2022-10-12T11:18:39.866Z,13.30
2022-10-12T11:21:13.938Z,13.28
2022-10-12T11:23:49.506Z,13.22
2022-10-12T11:26:24.322Z,13.26
2022-10-12T11:28:54.403Z,13.21
2022-10-12T11:31:25.976Z,13.42
2022-10-12T11:34:03.419Z,13.42
2022-10-12T11:36:36.077Z,13.51
2022-10-12T11:39:09.159Z,13.69
2022-10-12T11:42:03.124Z,13.82
2022-10-12T11:44:42.163Z,13.73
2022-10-12T11:47:17.451Z,13.81
2022-10-12T11:49:57.886Z,13.77
2022-10-12T11:52:29.355Z,13.96
2022-10-12T11:55:31.541Z,14.17
2022-10-12T11:58:05.640Z,14.26
2022-10-12T12:00:44.398Z,14.28
2022-10-12T12:03:21.945Z,14.19
2022-10-12T12:05:52.573Z,14.57
2022-10-12T12:08:24.624Z,14.55
2022-10-12T12:11:20.033Z,14.47
2022-10-12T12:13:48.521Z,14.45
2022-10-12T12:16:34.145Z,14.40
2022-10-12T12:19:41.510Z,14.73
2022-10-12T12:22:23.789Z,14.82
2022-10-12T12:25:30.615Z,14.68
2022-10-12T12:28:20.049Z,14.75
2022-10-12T12:31:01.865Z,14.92
2022-10-12T12:33:35.255Z,14.95
2022-10-12T12:36:06.130Z,14.81
2022-10-12T12:38:36.920Z,14.79
2022-10-12T12:41:12.595Z,14.65
2022-10-12T12:44:06.385Z,14.54
2022-10-12T12:47:45.210Z,14.75
2022-10-12T12:50:31.240Z,14.89
2022-10-12T12:53:06.413Z,14.89
2022-10-12T12:55:50.498Z,14.96
2022-10-12T12:58:41.123Z,15.26
2022-10-12T13:01:32.251Z,15.14
2022-10-12T13:04:28.097Z,14.94
2022-10-12T13:07:29.505Z,14.69
2022-10-12T13:10:23.886Z,14.76
2022-10-12T13:13:19.412Z,14.88
2022-10-12T13:16:03.495Z,14.89
2022-10-12T13:18:59.300Z,14.85
2022-10-12T13:21:37.976Z,14.94
2022-10-12T13:24:19.091Z,14.94
2022-10-12T13:26:57.616Z,15.14
2022-10-12T13:29:42.755Z,15.05
2022-10-12T13:32:21.308Z,14.88
2022-10-12T13:34:57.936Z,15.37
2022-10-12T13:37:32.487Z,15.15
2022-10-12T13:40:00.873Z,15.11
2022-10-12T13:42:33.545Z,15.16
2022-10-12T13:45:04.482Z,14.98
2022-10-12T13:47:34.340Z,15.22
2022-10-12T13:50:04.106Z,15.10
2022-10-12T13:52:34.451Z,15.01
2022-10-12T13:55:02.830Z,15.17
2022-10-12T13:57:36.366Z,15.14
2022-10-12T14:00:11.713Z,15.05
2022-10-12T14:02:40.037Z,15.04
2022-10-12T14:05:18.165Z,15.14
2022-10-12T14:07:47.732Z,14.94
2022-10-12T14:10:21.371Z,15.07
2022-10-12T14:12:52.422Z,15.29
2022-10-12T14:15:26.109Z,15.27
2022-10-12T14:17:54.968Z,15.08
2022-10-12T14:20:35.015Z,14.90
2022-10-12T14:23:12.865Z,14.90
2022-10-12T14:25:53.993Z,15.05
2022-10-12T14:28:30.274Z,15.13
2022-10-12T14:30:58.646Z,15.12
2022-10-12T14:33:27.949Z,15.01
2022-10-12T14:36:16.697Z,15.04
2022-10-12T14:38:47.229Z,14.94
2022-10-12T14:41:36.794Z,15.01
2022-10-12T14:44:10.787Z,15.02
2022-10-12T14:46:40.879Z,14.95
2022-10-12T14:49:17.804Z,14.93
2022-10-12T14:51:49.128Z,14.89
2022-10-12T14:54:17.708Z,14.85
2022-10-12T14:56:49.006Z,14.91
2022-10-12T14:59:17.316Z,14.81
2022-10-12T15:01:48.961Z,14.75
2022-10-12T15:04:26.650Z,14.77
2022-10-12T15:06:59.902Z,14.78
2022-10-12T15:09:33.154Z,14.74
2022-10-12T15:12:02.557Z,14.75
2022-10-12T15:14:31.794Z,14.86
2022-10-12T15:17:00.208Z,15.10
2022-10-12T15:19:32.384Z,15.21
2022-10-12T15:22:02.135Z,15.15
2022-10-12T15:24:34.578Z,14.94
2022-10-12T15:27:04.908Z,15.00
2022-10-12T15:29:33.204Z,14.94
2022-10-12T15:32:01.691Z,14.96
2022-10-12T15:34:29.854Z,14.90
2022-10-12T15:37:08.666Z,14.79
2022-10-12T15:39:45.964Z,14.67
2022-10-12T15:42:19.027Z,14.57
2022-10-12T15:44:47.240Z,14.56
2022-10-12T15:47:16.638Z,14.48
2022-10-12T15:49:47.697Z,14.47
2022-10-12T15:52:22.307Z,14.36
2022-10-12T15:54:55.734Z,14.31
2022-10-12T15:57:32.772Z,14.20
2022-10-12T16:00:01.250Z,14.19
2022-10-12T16:02:29.543Z,14.33
2022-10-12T16:04:57.803Z,14.18
2022-10-12T16:07:30.013Z,14.06
2022-10-12T16:10:03.235Z,14.01
2022-10-12T16:12:31.473Z,14.00
2022-10-12T16:15:05.347Z,13.77
2022-10-12T16:17:42.540Z,13.89
2022-10-12T16:20:12.489Z,13.88
2022-10-12T16:22:43.066Z,13.82
2022-10-12T16:25:20.970Z,13.79
2022-10-12T16:27:52.637Z,13.75
2022-10-12T16:30:21.685Z,13.74
2022-10-12T16:32:53.560Z,13.71
2022-10-12T16:35:21.763Z,13.63
2022-10-12T16:37:51.579Z,13.61
2022-10-12T16:40:27.649Z,13.56
2022-10-12T16:42:58.320Z,13.49
2022-10-12T16:45:30.146Z,13.56
2022-10-12T16:48:01.303Z,13.54
2022-10-12T16:50:35.299Z,13.44
2022-10-12T16:54:20.800Z,13.37
2022-10-12T16:56:54.794Z,13.30
2022-10-12T16:59:44.911Z,13.16
2022-10-12T17:39:46.178Z,12.39
2022-10-12T17:42:14.629Z,12.32
2022-10-12T17:44:52.145Z,12.32
2022-10-12T17:47:23.224Z,12.23
2022-10-12T17:49:51.379Z,12.15
